Airport View

Enter AWOS ICAO identifier for current METAR.

ex. KFNL

KDRO 191253Z AUTO 08004KT 10SM OVC100 03/00 A2999 RMK AO2 SLP129 T00280000

19 May 2019 13:19

Frequency: 120.625

Phone: 970-259-3579

Other Area AWOS: KFMN - KPSO - KCEZ - KTEX

TAF KDRO 191131Z 1912/2012 VRB03KT P6SM FEW070 BKN140 FM191900 17010G20KT P6SM SCT050 OVC070 FM192300 22015G25KT P6SM VCSH OVC080 FM200600 05006KT P6SM -SHRA SCT045 OVC060